createdAt,value
2023-10-22T00:01:02.877Z,17.30
2023-10-22T00:04:05.464Z,17.40
2023-10-22T00:07:09.748Z,17.40
2023-10-22T00:10:11.961Z,17.40
2023-10-22T00:13:14.673Z,17.30
2023-10-22T00:16:16.833Z,17.30
2023-10-22T00:19:19.050Z,17.30
2023-10-22T00:22:21.402Z,17.40
2023-10-22T00:25:23.658Z,17.40
2023-10-22T00:28:27.012Z,17.30
2023-10-22T00:31:29.659Z,17.30
2023-10-22T00:34:32.080Z,17.30
2023-10-22T00:37:34.454Z,17.30
2023-10-22T00:40:36.645Z,17.20
2023-10-22T00:43:39.046Z,17.30
2023-10-22T00:46:44.600Z,17.20
2023-10-22T00:49:48.029Z,17.30
2023-10-22T00:52:50.586Z,17.20
2023-10-22T00:55:52.772Z,17.30
2023-10-22T00:58:55.309Z,17.20
2023-10-22T01:01:57.860Z,17.20
2023-10-22T01:05:01.380Z,17.20
2023-10-22T01:08:04.840Z,17.20
2023-10-22T01:11:11.960Z,17.20
2023-10-22T01:14:14.214Z,17.20
2023-10-22T01:17:16.476Z,17.20
2023-10-22T01:20:18.649Z,17.20
2023-10-22T01:23:21.206Z,17.10
2023-10-22T01:26:23.366Z,17.10
2023-10-22T01:29:25.641Z,17.10
2023-10-22T01:32:31.752Z,17.10
2023-10-22T01:35:35.582Z,17.00
2023-10-22T01:38:38.069Z,17.00
2023-10-22T01:41:42.712Z,17.10
2023-10-22T01:44:45.196Z,17.00
2023-10-22T01:47:47.851Z,17.00
2023-10-22T01:50:50.211Z,17.00
2023-10-22T01:53:52.652Z,17.10
2023-10-22T01:56:55.231Z,17.10
2023-10-22T01:59:57.679Z,17.00
2023-10-22T02:03:00.435Z,17.00
2023-10-22T02:06:10.993Z,17.10
2023-10-22T02:09:14.238Z,17.10
2023-10-22T02:12:16.556Z,17.10
2023-10-22T02:15:18.847Z,17.10
2023-10-22T02:18:21.116Z,17.20
2023-10-22T02:21:27.405Z,17.20
2023-10-22T02:24:29.956Z,17.10
2023-10-22T02:27:32.972Z,17.20
2023-10-22T02:30:35.189Z,17.20
2023-10-22T02:33:39.204Z,17.20
2023-10-22T02:36:41.576Z,17.20
2023-10-22T02:39:44.439Z,17.10
2023-10-22T02:42:47.010Z,17.10
2023-10-22T02:45:55.855Z,17.00
2023-10-22T02:48:59.772Z,17.00
2023-10-22T02:52:02.258Z,17.00
2023-10-22T02:55:05.626Z,17.00
2023-10-22T02:58:07.985Z,17.00
2023-10-22T03:01:11.549Z,17.00
2023-10-22T03:04:13.865Z,17.00
2023-10-22T03:07:16.207Z,17.00
2023-10-22T03:10:19.574Z,17.00
2023-10-22T03:13:21.730Z,17.00
2023-10-22T03:16:24.976Z,16.90
2023-10-22T03:19:27.739Z,16.90
2023-10-22T03:22:31.722Z,16.80
2023-10-22T03:25:35.536Z,16.70
2023-10-22T03:28:38.069Z,16.70
2023-10-22T03:31:40.249Z,16.60
2023-10-22T03:34:42.679Z,16.60
2023-10-22T03:37:45.073Z,16.50
2023-10-22T03:40:47.563Z,16.50
2023-10-22T03:43:50.738Z,16.50
2023-10-22T03:46:53.374Z,16.40
2023-10-22T03:49:55.805Z,16.40
2023-10-22T03:52:58.079Z,16.40
2023-10-22T03:56:01.664Z,16.40
2023-10-22T03:59:03.939Z,16.40
2023-10-22T04:02:06.192Z,16.40
2023-10-22T04:05:09.859Z,16.40
2023-10-22T04:08:12.099Z,16.40
2023-10-22T04:11:14.282Z,16.40
2023-10-22T04:14:17.541Z,16.40
2023-10-22T04:17:19.752Z,16.50
2023-10-22T04:20:23.186Z,16.50
2023-10-22T04:23:26.174Z,16.40
2023-10-22T04:26:29.513Z,16.40
2023-10-22T04:29:31.803Z,16.40
2023-10-22T04:32:34.978Z,16.40
2023-10-22T04:35:38.277Z,16.40
2023-10-22T04:38:40.461Z,16.40
2023-10-22T04:41:44.511Z,16.40
2023-10-22T04:44:48.166Z,16.40
2023-10-22T04:47:54.654Z,16.40
2023-10-22T04:50:59.237Z,16.40
2023-10-22T04:54:01.577Z,16.40
2023-10-22T04:57:04.355Z,16.40
2023-10-22T05:00:11.253Z,16.40
2023-10-22T05:03:17.558Z,16.40
2023-10-22T05:06:22.699Z,16.40
2023-10-22T05:09:30.693Z,16.40
2023-10-22T05:12:33.023Z,16.40
2023-10-22T05:15:35.296Z,16.40
2023-10-22T05:18:39.230Z,16.30
2023-10-22T05:21:41.583Z,16.30
2023-10-22T05:24:50.129Z,16.30
2023-10-22T05:27:52.558Z,16.30
2023-10-22T05:30:54.772Z,16.30
2023-10-22T05:33:57.080Z,16.30
2023-10-22T05:36:59.265Z,16.40
2023-10-22T05:40:02.191Z,16.40
2023-10-22T05:43:04.622Z,16.40
2023-10-22T05:46:06.852Z,16.30
2023-10-22T05:49:11.610Z,16.40
2023-10-22T05:52:14.097Z,16.30
2023-10-22T05:55:16.353Z,16.30
2023-10-22T05:58:18.582Z,16.30
2023-10-22T06:01:22.315Z,16.30
2023-10-22T06:04:24.741Z,16.30
2023-10-22T06:07:27.048Z,16.30
2023-10-22T06:10:29.326Z,16.30
2023-10-22T06:13:33.407Z,16.30
2023-10-22T06:16:35.734Z,16.20
2023-10-22T06:19:38.038Z,16.20
2023-10-22T06:22:40.460Z,16.20
2023-10-22T06:25:45.645Z,16.20
2023-10-22T06:28:50.778Z,16.20
2023-10-22T06:31:53.186Z,16.20
2023-10-22T06:34:55.495Z,16.20
2023-10-22T06:37:58.459Z,16.20
2023-10-22T06:41:00.768Z,16.20
2023-10-22T06:44:04.728Z,16.20
2023-10-22T06:47:06.933Z,16.20
2023-10-22T06:50:13.631Z,16.10
2023-10-22T06:53:15.893Z,16.10
2023-10-22T06:56:19.890Z,16.10
2023-10-22T06:59:22.192Z,16.20
2023-10-22T07:02:26.880Z,16.20
2023-10-22T07:05:29.232Z,16.20
2023-10-22T07:08:31.571Z,16.20
2023-10-22T07:11:35.142Z,16.20
2023-10-22T07:14:37.748Z,16.30
2023-10-22T07:17:40.548Z,16.30
2023-10-22T07:20:42.871Z,16.30
2023-10-22T07:23:45.197Z,16.30
2023-10-22T07:26:47.435Z,16.30
2023-10-22T07:29:50.020Z,16.40
2023-10-22T07:32:53.688Z,16.30
2023-10-22T07:36:05.572Z,16.40
2023-10-22T07:39:09.206Z,16.40
2023-10-22T07:42:11.510Z,16.40
2023-10-22T07:45:14.095Z,16.40
2023-10-22T07:48:16.541Z,16.40
2023-10-22T07:51:20.357Z,16.50
2023-10-22T07:54:22.700Z,16.40
2023-10-22T07:57:28.077Z,16.50
2023-10-22T08:00:30.493Z,16.50
2023-10-22T08:03:33.095Z,16.50
2023-10-22T08:06:35.468Z,16.50
2023-10-22T08:09:41.040Z,16.50
2023-10-22T08:12:43.356Z,16.50
2023-10-22T08:15:46.976Z,16.60
2023-10-22T08:18:49.339Z,16.60
2023-10-22T08:21:51.555Z,16.60
2023-10-22T08:24:53.850Z,16.70
2023-10-22T08:27:56.887Z,16.70
2023-10-22T08:31:01.054Z,16.80
2023-10-22T08:34:03.792Z,16.80
2023-10-22T08:37:06.077Z,16.80
2023-10-22T08:40:10.129Z,16.80
2023-10-22T08:43:18.830Z,16.80
2023-10-22T08:46:21.058Z,16.80
2023-10-22T08:49:24.224Z,16.80
2023-10-22T08:52:26.475Z,16.80
2023-10-22T08:55:31.501Z,16.80
2023-10-22T08:58:33.673Z,16.80
2023-10-22T09:01:36.380Z,16.80
2023-10-22T09:04:39.936Z,16.80
2023-10-22T09:08:01.114Z,16.80
2023-10-22T09:11:14.269Z,16.80
2023-10-22T09:14:24.041Z,16.80
2023-10-22T09:17:27.196Z,16.90
2023-10-22T09:20:31.498Z,16.80
2023-10-22T09:23:33.846Z,16.80
2023-10-22T09:26:51.979Z,16.90
2023-10-22T09:29:54.933Z,16.90
2023-10-22T09:32:57.270Z,17.00
2023-10-22T09:36:03.124Z,16.90
2023-10-22T09:39:06.330Z,16.90
2023-10-22T09:42:16.777Z,16.90
2023-10-22T09:45:21.765Z,16.90
2023-10-22T09:48:27.501Z,17.00
2023-10-22T09:51:37.276Z,17.00
2023-10-22T09:54:43.553Z,17.00
2023-10-22T09:57:48.112Z,17.00
2023-10-22T10:00:52.074Z,16.90
2023-10-22T10:03:58.372Z,16.90
2023-10-22T10:07:03.834Z,16.90
2023-10-22T10:10:07.147Z,17.00
2023-10-22T10:13:09.580Z,17.00
2023-10-22T10:16:13.132Z,16.90
2023-10-22T10:19:26.152Z,16.90
2023-10-22T10:22:47.103Z,17.00
2023-10-22T10:25:50.341Z,17.00
2023-10-22T10:28:52.723Z,17.00
2023-10-22T10:31:57.256Z,17.00
2023-10-22T10:35:02.220Z,16.90
2023-10-22T10:38:16.948Z,17.00
2023-10-22T10:41:42.307Z,17.00
2023-10-22T10:44:59.132Z,17.00
2023-10-22T10:48:01.738Z,17.00
2023-10-22T10:51:19.088Z,17.00
2023-10-22T10:54:21.591Z,17.00
2023-10-22T10:57:41.138Z,17.00
2023-10-22T11:00:54.479Z,16.90
2023-10-22T11:04:10.270Z,17.00
2023-10-22T11:07:26.144Z,16.90
2023-10-22T11:10:32.542Z,16.80
2023-10-22T11:13:34.821Z,16.70
2023-10-22T11:16:52.713Z,16.70
2023-10-22T11:19:55.079Z,16.70
2023-10-22T11:22:58.300Z,16.60
2023-10-22T11:26:00.673Z,16.60
2023-10-22T11:29:03.790Z,16.60
2023-10-22T11:32:11.973Z,16.60
2023-10-22T11:35:14.251Z,16.50
2023-10-22T11:38:23.431Z,16.60
2023-10-22T11:41:25.561Z,16.60
2023-10-22T11:44:37.295Z,16.60
2023-10-22T11:47:39.651Z,16.40
2023-10-22T11:50:49.611Z,16.40
2023-10-22T11:54:01.087Z,16.40
2023-10-22T11:57:03.933Z,16.30
2023-10-22T12:00:13.281Z,16.30
2023-10-22T12:03:16.474Z,16.20
2023-10-22T12:06:19.069Z,16.30
2023-10-22T12:09:21.678Z,16.30
2023-10-22T12:12:24.546Z,16.30
2023-10-22T12:15:27.468Z,16.40
2023-10-22T12:18:29.874Z,16.30
2023-10-22T12:21:32.227Z,16.40
2023-10-22T12:24:34.426Z,16.50
2023-10-22T12:27:36.725Z,16.50
2023-10-22T12:30:40.303Z,16.60
2023-10-22T12:33:42.779Z,16.70
2023-10-22T12:36:46.039Z,16.80
2023-10-22T12:39:48.729Z,16.90
2023-10-22T12:42:51.109Z,16.70
2023-10-22T12:45:53.847Z,16.70
2023-10-22T12:48:56.185Z,16.70
2023-10-22T12:51:58.657Z,16.70
2023-10-22T12:55:01.007Z,16.70
2023-10-22T12:58:03.284Z,16.80
2023-10-22T13:01:07.217Z,16.70
2023-10-22T13:04:09.637Z,16.60
2023-10-22T13:07:12.463Z,16.70
2023-10-22T13:10:14.716Z,16.90
2023-10-22T13:13:17.381Z,17.00
2023-10-22T13:16:20.549Z,17.00
2023-10-22T13:19:23.795Z,16.90
2023-10-22T13:22:25.929Z,17.00
2023-10-22T13:25:28.233Z,16.90
2023-10-22T13:28:30.476Z,17.00
2023-10-22T13:31:35.292Z,17.00
2023-10-22T13:34:37.660Z,17.10
2023-10-22T13:37:40.177Z,17.00
2023-10-22T13:40:42.545Z,17.00
2023-10-22T13:43:45.649Z,17.00
2023-10-22T13:46:47.952Z,17.00
2023-10-22T13:49:54.306Z,17.10
2023-10-22T13:52:57.661Z,17.10
2023-10-22T13:56:00.934Z,17.20
2023-10-22T13:59:03.159Z,17.30
2023-10-22T14:02:05.431Z,17.30
2023-10-22T14:05:11.633Z,17.50
2023-10-22T14:08:13.813Z,17.40
2023-10-22T14:11:17.190Z,17.60
2023-10-22T14:14:19.599Z,17.70
2023-10-22T14:17:21.788Z,17.90
2023-10-22T14:20:25.913Z,17.90
2023-10-22T14:23:28.672Z,17.80
2023-10-22T14:26:31.544Z,17.70
2023-10-22T14:29:33.796Z,17.70
2023-10-22T14:32:36.186Z,17.70
2023-10-22T14:35:38.440Z,17.60
2023-10-22T14:38:40.749Z,17.40
2023-10-22T14:41:42.910Z,17.40
2023-10-22T14:44:45.068Z,17.50
2023-10-22T14:47:47.318Z,17.40
2023-10-22T14:51:01.987Z,17.50
2023-10-22T14:54:05.401Z,17.60
2023-10-22T14:57:09.754Z,17.50
2023-10-22T15:00:12.434Z,17.40
2023-10-22T15:03:15.912Z,17.50
2023-10-22T15:06:18.239Z,17.60
2023-10-22T15:09:20.480Z,17.70
2023-10-22T15:12:23.619Z,17.60
2023-10-22T15:15:25.977Z,17.70
2023-10-22T15:18:28.348Z,17.70
2023-10-22T15:21:30.734Z,17.70
2023-10-22T15:24:33.138Z,17.70
2023-10-22T15:27:35.833Z,17.80
2023-10-22T15:30:39.016Z,17.70
2023-10-22T15:33:41.534Z,17.60
2023-10-22T15:36:45.188Z,17.50
2023-10-22T15:39:48.588Z,17.70
2023-10-22T15:42:52.896Z,17.60
2023-10-22T15:45:57.144Z,17.70
2023-10-22T15:48:59.396Z,17.70
2023-10-22T15:52:01.578Z,17.70
2023-10-22T15:55:03.979Z,17.50
2023-10-22T15:58:06.302Z,17.50
2023-10-22T16:01:11.685Z,17.50
2023-10-22T16:04:13.933Z,17.60
2023-10-22T16:07:17.151Z,17.50
2023-10-22T16:10:19.507Z,17.50
2023-10-22T16:13:21.674Z,17.30
2023-10-22T16:16:23.903Z,17.60
2023-10-22T16:19:26.248Z,17.50
2023-10-22T16:22:31.114Z,17.50
2023-10-22T16:25:33.520Z,17.50
2023-10-22T16:28:35.801Z,17.30
2023-10-22T16:31:38.054Z,17.20
2023-10-22T16:34:40.245Z,17.20
2023-10-22T16:37:42.882Z,17.30
2023-10-22T16:40:45.122Z,17.20
2023-10-22T16:43:47.352Z,17.30
2023-10-22T16:46:49.532Z,17.30
2023-10-22T16:49:51.827Z,17.30
2023-10-22T16:52:54.125Z,17.40
2023-10-22T16:55:56.450Z,17.30
2023-10-22T16:58:58.583Z,17.30
2023-10-22T17:02:00.855Z,17.40
2023-10-22T17:05:03.444Z,17.40
2023-10-22T17:08:06.263Z,17.40
2023-10-22T17:11:08.655Z,17.40
2023-10-22T17:14:10.897Z,17.40
2023-10-22T17:17:13.393Z,17.30
2023-10-22T17:20:15.602Z,17.30
2023-10-22T17:23:17.914Z,17.30
2023-10-22T17:26:20.098Z,17.30
2023-10-22T17:29:23.897Z,17.20
2023-10-22T17:32:26.180Z,17.20
2023-10-22T17:35:28.426Z,17.20
2023-10-22T17:38:30.845Z,17.10
2023-10-22T17:41:33.713Z,17.10
2023-10-22T17:44:38.403Z,17.00
2023-10-22T17:47:40.887Z,17.00
2023-10-22T17:50:44.372Z,17.00
2023-10-22T17:53:49.120Z,17.00
2023-10-22T17:56:51.468Z,17.00
2023-10-22T17:59:53.789Z,17.00
2023-10-22T18:02:56.572Z,17.00
2023-10-22T18:06:03.261Z,17.00
2023-10-22T18:09:05.738Z,17.00
2023-10-22T18:12:08.820Z,16.90
2023-10-22T18:15:11.430Z,17.00
2023-10-22T18:18:13.950Z,17.00
2023-10-22T18:21:16.276Z,17.00
2023-10-22T18:24:19.084Z,17.00
2023-10-22T18:27:21.427Z,17.00
2023-10-22T18:30:23.709Z,17.00
2023-10-22T18:33:26.131Z,17.00
2023-10-22T18:36:28.616Z,17.10
2023-10-22T18:39:31.279Z,17.10
2023-10-22T18:42:33.637Z,17.10
2023-10-22T18:45:40.893Z,17.00
2023-10-22T18:48:48.359Z,17.00
2023-10-22T18:51:50.858Z,17.00
2023-10-22T18:54:53.731Z,17.00
2023-10-22T18:57:56.090Z,17.00
2023-10-22T19:01:01.002Z,17.00
2023-10-22T19:04:04.491Z,16.90
2023-10-22T19:07:06.734Z,17.00
2023-10-22T19:10:11.234Z,17.00
2023-10-22T19:13:13.496Z,17.00
2023-10-22T19:16:23.950Z,17.00
2023-10-22T19:19:26.356Z,17.00
2023-10-22T19:22:28.559Z,16.90
2023-10-22T19:25:31.050Z,17.00
2023-10-22T19:28:34.308Z,17.00
2023-10-22T19:31:39.296Z,16.90
2023-10-22T19:34:42.974Z,16.90
2023-10-22T19:37:45.797Z,16.90
2023-10-22T19:40:48.014Z,16.90
2023-10-22T19:43:50.372Z,16.80
2023-10-22T19:46:52.682Z,16.80
2023-10-22T19:49:55.116Z,16.80
2023-10-22T19:52:57.436Z,16.80
2023-10-22T19:56:01.759Z,16.80
2023-10-22T19:59:07.010Z,16.80
2023-10-22T20:02:18.076Z,16.80
2023-10-22T20:05:20.830Z,16.80
2023-10-22T20:08:23.056Z,16.80
2023-10-22T20:11:25.345Z,16.80
2023-10-22T20:14:27.520Z,16.80
2023-10-22T20:17:29.799Z,16.80
2023-10-22T20:20:32.042Z,16.80
2023-10-22T20:23:34.845Z,16.80
2023-10-22T20:26:39.280Z,16.80
2023-10-22T20:29:41.474Z,16.80
2023-10-22T20:32:43.660Z,16.80
2023-10-22T20:35:45.920Z,16.80
2023-10-22T20:38:48.222Z,16.70
2023-10-22T20:41:50.632Z,16.80
2023-10-22T20:44:53.399Z,16.80
2023-10-22T20:47:57.931Z,16.80
2023-10-22T20:51:09.994Z,16.80
2023-10-22T20:54:12.508Z,16.80
2023-10-22T20:57:14.662Z,16.80
2023-10-22T21:00:17.192Z,16.80
2023-10-22T21:03:19.537Z,16.80
2023-10-22T21:06:22.238Z,16.70
2023-10-22T21:09:24.435Z,16.60
2023-10-22T21:12:27.335Z,16.50
2023-10-22T21:15:29.474Z,16.50
2023-10-22T21:18:32.917Z,16.50
2023-10-22T21:21:36.084Z,16.50
2023-10-22T21:24:38.750Z,16.40
2023-10-22T21:27:42.186Z,16.40
2023-10-22T21:30:44.612Z,16.30
2023-10-22T21:33:47.050Z,16.30
2023-10-22T21:36:49.601Z,16.30
2023-10-22T21:39:51.899Z,16.30
2023-10-22T21:42:55.837Z,16.30
2023-10-22T21:46:12.673Z,16.30
2023-10-22T21:49:15.035Z,16.20
2023-10-22T21:52:25.039Z,16.20
2023-10-22T21:55:28.157Z,16.20
2023-10-22T21:58:31.869Z,16.20
2023-10-22T22:01:38.341Z,16.10
2023-10-22T22:04:40.726Z,16.10
2023-10-22T22:07:43.060Z,16.10
2023-10-22T22:10:45.190Z,16.20
2023-10-22T22:13:47.717Z,16.10
2023-10-22T22:16:49.894Z,16.10
2023-10-22T22:19:52.706Z,16.10
2023-10-22T22:22:54.892Z,16.10
2023-10-22T22:25:57.631Z,16.10
2023-10-22T22:28:59.989Z,16.10
2023-10-22T22:32:02.326Z,16.00
2023-10-22T22:35:04.875Z,16.00
2023-10-22T22:38:07.536Z,16.00
2023-10-22T22:41:10.069Z,16.00
2023-10-22T22:44:12.563Z,16.10
2023-10-22T22:47:21.080Z,16.10
2023-10-22T22:50:23.237Z,16.10
2023-10-22T22:53:25.548Z,16.20
2023-10-22T22:56:27.820Z,16.20
2023-10-22T22:59:32.761Z,16.20
2023-10-22T23:02:40.021Z,16.30
2023-10-22T23:05:42.285Z,16.30
2023-10-22T23:08:44.493Z,16.30
2023-10-22T23:11:46.801Z,16.30
2023-10-22T23:14:49.318Z,16.30
2023-10-22T23:17:51.782Z,16.30
2023-10-22T23:20:54.072Z,16.40
2023-10-22T23:23:56.392Z,16.40
2023-10-22T23:26:58.861Z,16.50
2023-10-22T23:30:01.047Z,16.50
2023-10-22T23:33:03.873Z,16.50
2023-10-22T23:36:11.531Z,16.50
2023-10-22T23:39:14.824Z,16.50
2023-10-22T23:42:17.006Z,16.40
2023-10-22T23:45:19.904Z,16.40
2023-10-22T23:48:22.414Z,16.50
2023-10-22T23:51:24.852Z,16.50
2023-10-22T23:54:27.124Z,16.50
2023-10-22T23:57:30.460Z,16.50
